Terminal Aerodrome Forecast
Issued by NWS

Home | Current Version | Previous Version | Text Only | Print | Product List | Glossary On
Versions: 1 2 3 4 5 6 7 8 9 10 11 12 13 14 15 16 17 18 19 20 21 22 23 24 25 26 27 28 29 30 31 32 33 34 35 36
000
FTUS41 KRNK 221741
TAFBCB
TAF
KBCB 221741Z 2218/2318 31004KT P6SM SCT035
     FM222100 30005KT 5SM SHRA VCTS BKN035CB OVC070
     FM230200 VRB03KT 4SM BR SCT003 BKN100
     FM230600 00000KT 3SM BR OVC006
     FM231000 28003KT 2SM BR OVC005
     FM231400 28005KT P6SM OVC015=

USA.gov is the U.S. government's official web portal to all federal, state and local government web resources and services.